createdAt,value
2018-04-27T00:00:34.159Z,1006.03
2018-04-27T00:01:34.131Z,1006
2018-04-27T00:02:34.103Z,1005.99
2018-04-27T00:03:34.076Z,1006.02
2018-04-27T00:04:34.049Z,1005.97
2018-04-27T00:05:34.020Z,1005.93
2018-04-27T00:06:33.992Z,1005.96
2018-04-27T00:07:33.965Z,1005.93
2018-04-27T00:08:33.937Z,1005.98
2018-04-27T00:09:33.910Z,1005.93
2018-04-27T00:10:33.881Z,1005.98
2018-04-27T00:11:33.855Z,1005.98
2018-04-27T00:12:33.826Z,1005.98
2018-04-27T00:13:33.797Z,1005.96
2018-04-27T00:14:33.771Z,1005.94
2018-04-27T00:15:33.744Z,1005.95
2018-04-27T00:16:33.716Z,1005.94
2018-04-27T00:17:33.687Z,1005.98
2018-04-27T00:18:33.662Z,1005.93
2018-04-27T00:19:33.631Z,1005.93
2018-04-27T00:20:33.602Z,1005.93
2018-04-27T00:21:33.576Z,1005.94
2018-04-27T00:22:33.549Z,1005.93
2018-04-27T00:23:33.520Z,1005.95
2018-04-27T00:24:33.492Z,1005.88
2018-04-27T00:25:33.464Z,1005.88
2018-04-27T00:26:33.437Z,1005.9
2018-04-27T00:27:33.407Z,1005.89
2018-04-27T00:28:33.380Z,1005.9
2018-04-27T00:29:33.356Z,1005.88
2018-04-27T00:30:33.323Z,1005.88
2018-04-27T00:31:33.296Z,1005.85
2018-04-27T00:32:33.269Z,1005.84
2018-04-27T00:33:33.243Z,1005.81
2018-04-27T00:34:33.213Z,1005.82
2018-04-27T00:35:33.186Z,1005.83
2018-04-27T00:36:33.159Z,1005.79
2018-04-27T00:37:33.132Z,1005.78
2018-04-27T00:38:33.104Z,1005.77
2018-04-27T00:39:33.074Z,1005.75
2018-04-27T00:40:33.048Z,1005.72
2018-04-27T00:41:33.019Z,1005.74
2018-04-27T00:42:32.991Z,1005.71
2018-04-27T00:43:32.965Z,1005.73
2018-04-27T00:44:32.937Z,1005.7
2018-04-27T00:45:32.909Z,1005.69
2018-04-27T00:46:32.881Z,1005.66
2018-04-27T00:47:32.853Z,1005.67
2018-04-27T00:48:32.826Z,1005.65
2018-04-27T00:49:32.798Z,1005.71
2018-04-27T00:50:32.769Z,1005.7
2018-04-27T00:51:32.741Z,1005.76
2018-04-27T00:52:32.713Z,1005.7
2018-04-27T00:53:32.692Z,1005.71
2018-04-27T00:54:32.658Z,1005.7
2018-04-27T00:55:32.635Z,1005.67
2018-04-27T00:56:32.603Z,1005.65
2018-04-27T00:57:32.573Z,1005.66
2018-04-27T00:58:32.547Z,1005.64
2018-04-27T00:59:32.526Z,1005.67
2018-04-27T01:00:32.492Z,1005.63
2018-04-27T01:01:32.464Z,1005.62
2018-04-27T01:02:32.437Z,1005.61
2018-04-27T01:03:32.409Z,1005.63
2018-04-27T01:04:32.381Z,1005.57
2018-04-27T01:05:32.354Z,1005.58
2018-04-27T01:06:32.332Z,1005.54
2018-04-27T01:07:32.297Z,1005.56
2018-04-27T01:08:32.269Z,1005.54
2018-04-27T01:09:32.242Z,1005.54
2018-04-27T01:10:32.212Z,1005.51
2018-04-27T01:11:32.186Z,1005.49
2018-04-27T01:12:32.157Z,1005.52
2018-04-27T01:13:32.131Z,1005.51
2018-04-27T01:14:32.101Z,1005.45
2018-04-27T01:15:32.075Z,1005.46
2018-04-27T01:16:32.047Z,1005.45
2018-04-27T01:17:32.019Z,1005.47
2018-04-27T01:18:31.995Z,1005.46
2018-04-27T01:19:31.963Z,1005.48
2018-04-27T01:20:31.938Z,1005.46
2018-04-27T01:21:31.906Z,1005.46
2018-04-27T01:22:31.879Z,1005.45
2018-04-27T01:23:31.851Z,1005.49
2018-04-27T01:24:31.821Z,1005.46
2018-04-27T01:25:31.795Z,1005.42
2018-04-27T01:26:31.766Z,1005.44
2018-04-27T01:27:31.739Z,1005.4
2018-04-27T01:28:31.711Z,1005.42
2018-04-27T01:29:31.682Z,1005.36
2018-04-27T01:30:31.654Z,1005.36
2018-04-27T01:31:31.625Z,1005.37
2018-04-27T01:32:31.597Z,1005.4
2018-04-27T01:33:31.568Z,1005.4
2018-04-27T01:34:31.542Z,1005.42
2018-04-27T01:35:31.513Z,1005.42
2018-04-27T01:36:31.484Z,1005.4
2018-04-27T01:37:31.457Z,1005.41
2018-04-27T01:38:31.428Z,1005.4
2018-04-27T01:39:31.402Z,1005.4
2018-04-27T01:40:31.373Z,1005.42
2018-04-27T01:41:31.345Z,1005.41
2018-04-27T01:42:31.317Z,1005.49
2018-04-27T01:43:31.288Z,1005.45
2018-04-27T01:44:31.261Z,1005.42
2018-04-27T01:45:31.233Z,1005.41
2018-04-27T01:46:31.204Z,1005.36
2018-04-27T01:47:31.181Z,1005.36
2018-04-27T01:48:31.148Z,1005.38
2018-04-27T01:49:31.122Z,1005.37
2018-04-27T01:50:31.093Z,1005.37
2018-04-27T01:51:31.072Z,1005.37
2018-04-27T01:52:31.038Z,1005.39
2018-04-27T01:53:31.009Z,1005.33
2018-04-27T01:54:30.980Z,1005.35
2018-04-27T01:55:30.952Z,1005.33
2018-04-27T01:56:30.926Z,1005.31
2018-04-27T01:57:30.898Z,1005.35
2018-04-27T01:58:30.869Z,1005.32
2018-04-27T01:59:30.941Z,1005.33
2018-04-27T02:00:30.814Z,1005.32
2018-04-27T02:01:30.786Z,1005.34
2018-04-27T02:02:30.757Z,1005.33
2018-04-27T02:03:30.729Z,1005.3
2018-04-27T02:04:30.701Z,1005.33
2018-04-27T02:05:30.672Z,1005.31
2018-04-27T02:06:30.645Z,1005.28
2018-04-27T02:07:30.619Z,1005.28
2018-04-27T02:08:30.588Z,1005.25
2018-04-27T02:09:30.562Z,1005.25
2018-04-27T02:10:30.535Z,1005.27
2018-04-27T02:11:30.503Z,1005.22
2018-04-27T02:12:30.475Z,1005.21
2018-04-27T02:13:30.447Z,1005.2
2018-04-27T02:14:30.419Z,1005.23
2018-04-27T02:15:30.391Z,1005.18
2018-04-27T02:16:30.364Z,1005.21
2018-04-27T02:17:30.334Z,1005.18
2018-04-27T02:18:30.307Z,1005.2
2018-04-27T02:19:30.283Z,1005.21
2018-04-27T02:20:30.249Z,1005.21
2018-04-27T02:21:30.221Z,1005.17
2018-04-27T02:22:30.194Z,1005.2
2018-04-27T02:23:30.166Z,1005.21
2018-04-27T02:24:30.137Z,1005.16
2018-04-27T02:25:30.109Z,1005.18
2018-04-27T02:26:30.082Z,1005.18
2018-04-27T02:27:30.052Z,1005.16
2018-04-27T02:28:30.025Z,1005.19
2018-04-27T02:29:29.996Z,1005.18
2018-04-27T02:30:29.970Z,1005.17
2018-04-27T02:31:29.940Z,1005.12
2018-04-27T02:32:29.913Z,1005.13
2018-04-27T02:33:29.885Z,1005.11
2018-04-27T02:34:29.857Z,1005.17
2018-04-27T02:35:29.832Z,1005.17
2018-04-27T02:36:29.800Z,1005.15
2018-04-27T02:37:29.771Z,1005.11
2018-04-27T02:38:29.742Z,1005.13
2018-04-27T02:39:29.715Z,1005.11
2018-04-27T02:40:29.686Z,1005.12
2018-04-27T02:41:29.664Z,1005.09
2018-04-27T02:42:29.629Z,1005.07
2018-04-27T02:43:29.605Z,1005.08
2018-04-27T02:44:29.573Z,1005.08
2018-04-27T02:45:29.544Z,1005.05
2018-04-27T02:46:29.516Z,1005.05
2018-04-27T02:47:29.488Z,1005.07
2018-04-27T02:48:29.461Z,1005.05
2018-04-27T02:49:29.432Z,1005.04
2018-04-27T02:50:29.406Z,1005.01
2018-04-27T02:51:29.377Z,1005
2018-04-27T02:52:29.349Z,1004.97
2018-04-27T02:53:29.320Z,1004.98
2018-04-27T02:54:29.290Z,1004.92
2018-04-27T02:55:29.263Z,1004.97
2018-04-27T02:56:29.234Z,1004.94
2018-04-27T02:57:29.208Z,1004.96
2018-04-27T02:58:29.178Z,1004.92
2018-04-27T02:59:29.164Z,1004.93
2018-04-27T03:00:29.122Z,1004.91
2018-04-27T03:01:29.093Z,1004.92
2018-04-27T03:02:29.066Z,1004.89
2018-04-27T03:03:29.039Z,1004.88
2018-04-27T03:04:29.011Z,1004.92
2018-04-27T03:05:28.989Z,1004.87
2018-04-27T03:06:28.953Z,1004.83
2018-04-27T03:07:28.926Z,1004.86
2018-04-27T03:08:28.896Z,1004.85
2018-04-27T03:09:28.869Z,1004.86
2018-04-27T03:10:28.845Z,1004.83
2018-04-27T03:11:28.812Z,1004.81
2018-04-27T03:12:28.783Z,1004.79
2018-04-27T03:13:28.756Z,1004.82
2018-04-27T03:14:28.757Z,1004.8
2018-04-27T03:15:28.698Z,1004.78
2018-04-27T03:16:28.671Z,1004.76
2018-04-27T03:17:28.644Z,1004.78
2018-04-27T03:18:28.614Z,1004.79
2018-04-27T03:19:28.587Z,1004.81
2018-04-27T03:20:28.559Z,1004.79
2018-04-27T03:21:28.531Z,1004.79
2018-04-27T03:22:28.503Z,1004.76
2018-04-27T03:23:28.474Z,1004.78
2018-04-27T03:24:28.446Z,1004.78
2018-04-27T03:25:28.418Z,1004.8
2018-04-27T03:26:28.390Z,1004.76
2018-04-27T03:27:28.363Z,1004.78
2018-04-27T03:28:28.334Z,1004.79
2018-04-27T03:29:28.305Z,1004.78
2018-04-27T03:30:28.278Z,1004.75
2018-04-27T03:31:28.249Z,1004.79
2018-04-27T03:32:28.222Z,1004.78
2018-04-27T03:33:28.198Z,1004.79
2018-04-27T03:34:28.165Z,1004.78
2018-04-27T03:35:28.137Z,1004.81
2018-04-27T03:36:28.111Z,1004.76
2018-04-27T03:37:28.082Z,1004.79
2018-04-27T03:38:28.053Z,1004.8
2018-04-27T03:39:28.028Z,1004.74
2018-04-27T03:40:27.995Z,1004.78
2018-04-27T03:41:27.970Z,1004.74
2018-04-27T03:42:27.941Z,1004.73
2018-04-27T03:43:27.913Z,1004.7
2018-04-27T03:44:27.884Z,1004.7
2018-04-27T03:45:27.912Z,1004.67
2018-04-27T03:46:27.828Z,1004.68
2018-04-27T03:47:27.801Z,1004.69
2018-04-27T03:48:27.771Z,1004.65
2018-04-27T03:49:27.742Z,1004.63
2018-04-27T03:50:27.714Z,1004.63
2018-04-27T03:51:27.686Z,1004.64
2018-04-27T03:52:27.657Z,1004.59
2018-04-27T03:53:27.630Z,1004.63
2018-04-27T03:54:27.602Z,1004.59
2018-04-27T03:55:27.574Z,1004.62
2018-04-27T03:56:27.546Z,1004.54
2018-04-27T03:57:27.517Z,1004.57
2018-04-27T03:58:27.492Z,1004.56
2018-04-27T03:59:27.460Z,1004.51
2018-04-27T04:00:27.435Z,1004.58
2018-04-27T04:01:27.404Z,1004.54
2018-04-27T04:02:27.376Z,1004.5
2018-04-27T04:03:27.347Z,1004.56
2018-04-27T04:04:27.322Z,1004.52
2018-04-27T04:05:27.291Z,1004.51
2018-04-27T04:06:27.262Z,1004.51
2018-04-27T04:07:27.235Z,1004.47
2018-04-27T04:08:27.205Z,1004.5
2018-04-27T04:09:27.179Z,1004.44
2018-04-27T04:10:27.151Z,1004.5
2018-04-27T04:11:27.124Z,1004.48
2018-04-27T04:12:27.095Z,1004.47
2018-04-27T04:13:27.067Z,1004.47
2018-04-27T04:14:27.038Z,1004.48
2018-04-27T04:15:27.010Z,1004.48
2018-04-27T04:16:26.981Z,1004.47
2018-04-27T04:17:26.953Z,1004.51
2018-04-27T04:18:26.977Z,1004.53
2018-04-27T04:19:26.898Z,1004.51
2018-04-27T04:20:26.868Z,1004.47
2018-04-27T04:21:26.839Z,1004.44
2018-04-27T04:22:26.811Z,1004.41
2018-04-27T04:23:26.783Z,1004.44
2018-04-27T04:24:26.753Z,1004.45
2018-04-27T04:25:26.726Z,1004.44
2018-04-27T04:26:26.707Z,1004.48
2018-04-27T04:27:26.669Z,1004.48
2018-04-27T04:28:26.640Z,1004.47
2018-04-27T04:29:26.611Z,1004.46
2018-04-27T04:30:26.584Z,1004.41
2018-04-27T04:31:26.554Z,1004.43
2018-04-27T04:32:26.588Z,1004.5
2018-04-27T04:33:26.499Z,1004.48
2018-04-27T04:34:26.470Z,1004.44
2018-04-27T04:35:26.442Z,1004.46
2018-04-27T04:36:26.414Z,1004.45
2018-04-27T04:37:26.441Z,1004.43
2018-04-27T04:38:26.488Z,1004.42
2018-04-27T04:39:26.331Z,1004.42
2018-04-27T04:40:26.301Z,1004.4
2018-04-27T04:41:26.272Z,1004.42
2018-04-27T04:42:26.243Z,1004.41
2018-04-27T04:43:26.215Z,1004.42
2018-04-27T04:44:26.187Z,1004.43
2018-04-27T04:45:26.159Z,1004.45
2018-04-27T04:46:26.131Z,1004.45
2018-04-27T04:47:26.102Z,1004.45
2018-04-27T04:48:26.074Z,1004.37
2018-04-27T04:49:26.046Z,1004.4
2018-04-27T04:50:26.016Z,1004.36
2018-04-27T04:51:25.988Z,1004.37
2018-04-27T04:52:25.973Z,1004.41
2018-04-27T04:53:25.931Z,1004.39
2018-04-27T04:54:25.906Z,1004.41
2018-04-27T04:55:25.875Z,1004.38
2018-04-27T04:56:25.846Z,1004.35
2018-04-27T04:57:25.818Z,1004.36
2018-04-27T04:58:25.794Z,1004.33
2018-04-27T04:59:25.761Z,1004.34
2018-04-27T05:00:25.734Z,1004.32
2018-04-27T05:01:25.705Z,1004.32
2018-04-27T05:02:25.681Z,1004.3
2018-04-27T05:03:25.652Z,1004.27
2018-04-27T05:04:25.619Z,1004.33
2018-04-27T05:05:25.614Z,1004.31
2018-04-27T05:06:25.566Z,1004.29
2018-04-27T05:07:25.536Z,1004.26
2018-04-27T05:08:25.508Z,1004.22
2018-04-27T05:09:25.480Z,1004.27
2018-04-27T05:10:25.457Z,1004.23
2018-04-27T05:11:25.426Z,1004.22
2018-04-27T05:12:25.397Z,1004.16
2018-04-27T05:13:25.370Z,1004.15
2018-04-27T05:14:25.342Z,1004.14
2018-04-27T05:15:25.313Z,1004.12
2018-04-27T05:16:25.291Z,1004.12
2018-04-27T05:17:25.259Z,1004.04
2018-04-27T05:18:25.232Z,1004.07
2018-04-27T05:19:25.236Z,1004.05
2018-04-27T05:20:25.175Z,1004.06
2018-04-27T05:21:25.149Z,1004.06
2018-04-27T05:22:25.119Z,1004.03
2018-04-27T05:23:25.093Z,1004.05
2018-04-27T05:24:25.068Z,1004.01
2018-04-27T05:25:25.037Z,1004.03
2018-04-27T05:26:25.009Z,1004.02
2018-04-27T05:27:24.980Z,1004.05
2018-04-27T05:28:24.953Z,1004.02
2018-04-27T05:29:24.927Z,1004.01
2018-04-27T05:30:24.899Z,1004.06
2018-04-27T05:31:24.874Z,1004.1
2018-04-27T05:32:24.844Z,1004.07
2018-04-27T05:33:24.816Z,1004.06
2018-04-27T05:34:24.788Z,1004.06
2018-04-27T05:35:24.762Z,1004.06
2018-04-27T05:36:24.734Z,1004.07
2018-04-27T05:37:24.729Z,1004.04
2018-04-27T05:38:24.680Z,1004.06
2018-04-27T05:39:24.667Z,1004.04
2018-04-27T05:40:24.627Z,1004.02
2018-04-27T05:41:24.598Z,1004.03
2018-04-27T05:42:24.570Z,1004.01
2018-04-27T05:43:24.542Z,1003.99
2018-04-27T05:44:24.516Z,1004
2018-04-27T05:45:24.491Z,1004.01
2018-04-27T05:46:24.466Z,1004.01
2018-04-27T05:47:24.436Z,1004.04
2018-04-27T05:48:24.410Z,1004.03
2018-04-27T05:49:24.385Z,1004.03
2018-04-27T05:50:24.356Z,1003.99
2018-04-27T05:51:24.329Z,1003.99
2018-04-27T05:52:24.303Z,1004.04
2018-04-27T05:53:24.275Z,1004
2018-04-27T05:54:24.248Z,1003.99
2018-04-27T05:55:24.222Z,1003.96
2018-04-27T05:56:24.197Z,1004.04
2018-04-27T05:57:24.169Z,1004.05
2018-04-27T05:58:24.143Z,1003.99
2018-04-27T05:59:24.126Z,1003.99
2018-04-27T06:00:24.090Z,1003.95
2018-04-27T06:01:24.067Z,1003.96
2018-04-27T06:02:24.042Z,1003.95
2018-04-27T06:03:24.014Z,1003.94
2018-04-27T06:04:23.988Z,1003.9
2018-04-27T06:05:23.963Z,1003.88
2018-04-27T06:06:23.937Z,1003.88
2018-04-27T06:07:23.911Z,1003.8
2018-04-27T06:08:23.887Z,1003.82
2018-04-27T06:09:23.868Z,1003.84
2018-04-27T06:10:23.838Z,1003.79
2018-04-27T06:11:23.816Z,1003.79
2018-04-27T06:12:23.794Z,1003.81
2018-04-27T06:13:23.766Z,1003.77
2018-04-27T06:14:23.740Z,1003.77
2018-04-27T06:15:23.717Z,1003.77
2018-04-27T06:16:23.692Z,1003.78
2018-04-27T06:17:23.667Z,1003.78
2018-04-27T06:18:23.645Z,1003.8
2018-04-27T06:19:23.681Z,1003.81
2018-04-27T06:20:23.598Z,1003.82
2018-04-27T06:21:23.573Z,1003.77
2018-04-27T06:22:23.549Z,1003.73
2018-04-27T06:23:23.524Z,1003.76
2018-04-27T06:24:23.503Z,1003.76
2018-04-27T06:25:23.476Z,1003.72
2018-04-27T06:26:23.453Z,1003.76
2018-04-27T06:27:23.431Z,1003.76
2018-04-27T06:28:23.407Z,1003.74
2018-04-27T06:29:23.384Z,1003.73
2018-04-27T06:30:23.361Z,1003.75
2018-04-27T06:31:23.337Z,1003.74
2018-04-27T06:32:23.313Z,1003.75
2018-04-27T06:33:23.291Z,1003.74
2018-04-27T06:34:23.269Z,1003.73
2018-04-27T06:35:23.246Z,1003.68
2018-04-27T06:36:23.223Z,1003.73
2018-04-27T06:37:23.202Z,1003.68
2018-04-27T06:38:23.180Z,1003.69
2018-04-27T06:39:23.187Z,1003.7
2018-04-27T06:40:23.264Z,1003.69
2018-04-27T06:41:23.113Z,1003.7
2018-04-27T06:42:23.094Z,1003.63
2018-04-27T06:43:23.071Z,1003.61
2018-04-27T06:44:23.049Z,1003.66
2018-04-27T06:45:23.030Z,1003.63
2018-04-27T06:46:23.010Z,1003.63
2018-04-27T06:47:22.988Z,1003.6
2018-04-27T06:48:22.966Z,1003.61
2018-04-27T06:49:22.975Z,1003.61
2018-04-27T06:50:22.926Z,1003.6
2018-04-27T06:51:23.001Z,1003.55
2018-04-27T06:52:22.888Z,1003.56
2018-04-27T06:53:22.866Z,1003.56
2018-04-27T06:54:22.846Z,1003.56
2018-04-27T06:55:22.941Z,1003.58
2018-04-27T06:56:22.806Z,1003.53
2018-04-27T06:57:22.791Z,1003.54
2018-04-27T06:58:22.767Z,1003.55
2018-04-27T06:59:22.781Z,1003.51
2018-04-27T07:00:22.728Z,1003.52
2018-04-27T07:01:22.709Z,1003.52
2018-04-27T07:02:22.691Z,1003.5
2018-04-27T07:03:22.670Z,1003.53
2018-04-27T07:04:22.652Z,1003.51
2018-04-27T07:05:22.723Z,1003.56
2018-04-27T07:06:22.610Z,1003.51
2018-04-27T07:07:22.596Z,1003.54
2018-04-27T07:08:22.571Z,1003.54
2018-04-27T07:09:22.552Z,1003.53
2018-04-27T07:10:22.532Z,1003.51
2018-04-27T07:11:22.512Z,1003.5
2018-04-27T07:12:22.756Z,1003.5
2018-04-27T07:13:22.473Z,1003.5
2018-04-27T07:14:22.555Z,1003.48
2018-04-27T07:15:22.436Z,1003.51
2018-04-27T07:16:22.416Z,1003.47
2018-04-27T07:17:22.399Z,1003.46
2018-04-27T07:18:22.378Z,1003.47
2018-04-27T07:19:22.362Z,1003.44
2018-04-27T07:20:22.343Z,1003.48
2018-04-27T07:21:22.324Z,1003.44
2018-04-27T07:22:22.355Z,1003.41
2018-04-27T07:23:22.294Z,1003.4
2018-04-27T07:24:22.267Z,1003.4
2018-04-27T07:25:22.251Z,1003.39
2018-04-27T07:26:22.234Z,1003.45
2018-04-27T07:27:22.216Z,1003.46
2018-04-27T07:28:22.198Z,1003.44
2018-04-27T07:29:22.181Z,1003.4
2018-04-27T07:30:22.160Z,1003.41
2018-04-27T07:31:22.145Z,1003.37
2018-04-27T07:32:22.128Z,1003.34
2018-04-27T07:33:22.111Z,1003.35
2018-04-27T07:34:22.093Z,1003.32
2018-04-27T07:35:22.077Z,1003.28
2018-04-27T07:36:22.060Z,1003.23
2018-04-27T07:37:22.044Z,1003.27
2018-04-27T07:38:22.027Z,1003.29
2018-04-27T07:39:22.014Z,1003.25
2018-04-27T07:40:21.992Z,1003.29
2018-04-27T07:41:21.976Z,1003.22
2018-04-27T07:42:21.959Z,1003.28
2018-04-27T07:43:21.954Z,1003.23
2018-04-27T07:44:21.926Z,1003.25
2018-04-27T07:45:21.917Z,1003.21
2018-04-27T07:46:21.894Z,1003.19
2018-04-27T07:47:21.877Z,1003.19
2018-04-27T07:48:21.859Z,1003.17
2018-04-27T07:49:21.843Z,1003.15
2018-04-27T07:50:21.827Z,1003.13
2018-04-27T07:51:21.811Z,1003.15
2018-04-27T07:52:21.800Z,1003.15
2018-04-27T07:53:21.775Z,1003.08
2018-04-27T07:54:21.847Z,1003.05
2018-04-27T07:55:21.805Z,1003.06
2018-04-27T07:56:21.727Z,1003.08
2018-04-27T07:57:21.711Z,1003.08
2018-04-27T07:58:21.802Z,1003.1
2018-04-27T07:59:21.681Z,1003.1
2018-04-27T08:00:21.664Z,1003.08
2018-04-27T08:01:21.648Z,1003.08
2018-04-27T08:02:21.688Z,1003.07
2018-04-27T08:03:21.619Z,1003.09
2018-04-27T08:04:21.605Z,1003.11
2018-04-27T08:05:21.593Z,1003.11
2018-04-27T08:06:21.585Z,1003.08
2018-04-27T08:07:21.559Z,1003.06
2018-04-27T08:08:21.658Z,1003.06
2018-04-27T08:09:21.533Z,1003.05
2018-04-27T08:10:21.519Z,1003.01
2018-04-27T08:11:21.529Z,1003.02
2018-04-27T08:12:21.489Z,1002.99
2018-04-27T08:13:21.475Z,1002.94
2018-04-27T08:14:21.461Z,1002.92
2018-04-27T08:15:21.448Z,1002.88
2018-04-27T08:16:21.434Z,1002.9
2018-04-27T08:17:21.419Z,1002.87
2018-04-27T08:18:21.411Z,1002.87
2018-04-27T08:19:21.428Z,1002.89
2018-04-27T08:20:21.381Z,1002.9
2018-04-27T08:21:21.365Z,1002.87
2018-04-27T08:22:21.350Z,1002.88
2018-04-27T08:23:21.338Z,1002.86
2018-04-27T08:24:21.324Z,1002.85
2018-04-27T08:25:21.309Z,1002.82
2018-04-27T08:26:21.298Z,1002.83
2018-04-27T08:27:21.294Z,1002.86
2018-04-27T08:28:21.503Z,1002.83
2018-04-27T08:29:21.255Z,1002.85
2018-04-27T08:30:21.268Z,1002.83
2018-04-27T08:31:21.229Z,1002.82
2018-04-27T08:32:21.216Z,1002.8
2018-04-27T08:33:21.201Z,1002.78
2018-04-27T08:34:21.187Z,1002.79
2018-04-27T08:35:21.177Z,1002.81
2018-04-27T08:36:21.160Z,1002.84
2018-04-27T08:37:21.147Z,1002.81
2018-04-27T08:38:21.135Z,1002.78
2018-04-27T08:39:21.119Z,1002.81
2018-04-27T08:40:21.106Z,1002.81
2018-04-27T08:41:21.099Z,1002.79
2018-04-27T08:42:21.096Z,1002.78
2018-04-27T08:43:21.068Z,1002.81
2018-04-27T08:44:21.053Z,1002.79
2018-04-27T08:45:21.041Z,1002.73
2018-04-27T08:46:21.028Z,1002.76
2018-04-27T08:47:21.014Z,1002.77
2018-04-27T08:48:21.002Z,1002.74
2018-04-27T08:49:20.990Z,1002.71
2018-04-27T08:50:21.030Z,1002.75
2018-04-27T08:51:20.965Z,1002.68
2018-04-27T08:52:20.953Z,1002.69
2018-04-27T08:53:20.939Z,1002.71
2018-04-27T08:54:20.928Z,1002.72
2018-04-27T08:55:20.915Z,1002.65
2018-04-27T08:56:21.004Z,1002.68
2018-04-27T08:57:20.891Z,1002.67
2018-04-27T08:58:20.878Z,1002.62
2018-04-27T08:59:20.868Z,1002.6
2018-04-27T09:00:20.853Z,1002.6
2018-04-27T09:01:20.843Z,1002.57
2018-04-27T09:02:20.831Z,1002.59
2018-04-27T09:03:20.816Z,1002.53
2018-04-27T09:04:20.806Z,1002.56
2018-04-27T09:05:20.793Z,1002.55
2018-04-27T09:06:20.977Z,1002.52
2018-04-27T09:07:20.771Z,1002.52
2018-04-27T09:08:20.759Z,1002.55
2018-04-27T09:09:20.746Z,1002.53
2018-04-27T09:10:20.736Z,1002.52
2018-04-27T09:11:20.723Z,1002.51
2018-04-27T09:12:20.712Z,1002.52
2018-04-27T09:13:20.700Z,1002.54
2018-04-27T09:14:20.694Z,1002.51
2018-04-27T09:15:20.677Z,1002.49
2018-04-27T09:16:20.753Z,1002.51
2018-04-27T09:17:20.665Z,1002.48
2018-04-27T09:18:20.643Z,1002.45
2018-04-27T09:19:20.638Z,1002.43
2018-04-27T09:20:20.671Z,1002.43
2018-04-27T09:21:20.610Z,1002.39
2018-04-27T09:22:20.599Z,1002.37
2018-04-27T09:23:20.590Z,1002.32
2018-04-27T09:24:20.576Z,1002.32
2018-04-27T09:25:20.568Z,1002.3
2018-04-27T09:26:20.553Z,1002.35
2018-04-27T09:27:20.543Z,1002.38
2018-04-27T09:28:20.531Z,1002.41
2018-04-27T09:29:20.520Z,1002.43
2018-04-27T09:30:20.510Z,1002.38
2018-04-27T09:31:20.496Z,1002.38
2018-04-27T09:32:20.496Z,1002.34
2018-04-27T09:33:20.474Z,1002.35
2018-04-27T09:34:20.463Z,1002.31
2018-04-27T09:35:20.450Z,1002.27
2018-04-27T09:36:20.439Z,1002.26
2018-04-27T09:37:20.426Z,1002.3
2018-04-27T09:38:20.414Z,1002.31
2018-04-27T09:39:20.402Z,1002.26
2018-04-27T09:40:20.392Z,1002.27
2018-04-27T09:41:20.378Z,1002.33
2018-04-27T09:42:20.368Z,1002.29
2018-04-27T09:43:20.354Z,1002.28
2018-04-27T09:44:20.353Z,1002.23
2018-04-27T09:45:20.329Z,1002.24
2018-04-27T09:46:20.317Z,1002.24
2018-04-27T09:47:20.305Z,1002.24
2018-04-27T09:48:20.292Z,1002.28
2018-04-27T09:49:20.278Z,1002.2
2018-04-27T09:50:20.265Z,1002.24
2018-04-27T09:51:20.252Z,1002.21
2018-04-27T09:52:20.241Z,1002.23
2018-04-27T09:53:20.225Z,1002.18
2018-04-27T09:54:20.212Z,1002.11
2018-04-27T09:55:20.201Z,1002.16
2018-04-27T09:56:20.187Z,1002.12
2018-04-27T09:57:20.173Z,1002.13
2018-04-27T09:58:20.159Z,1002.08
2018-04-27T09:59:20.149Z,1002.08
2018-04-27T10:00:20.138Z,1002.05
2018-04-27T10:01:20.123Z,1002.02
2018-04-27T10:02:20.104Z,1001.95
2018-04-27T10:03:20.092Z,1002.01
2018-04-27T10:04:20.077Z,1001.94
2018-04-27T10:05:20.064Z,1001.99
2018-04-27T10:06:20.050Z,1001.9
2018-04-27T10:07:20.036Z,1001.93
2018-04-27T10:08:20.021Z,1001.93
2018-04-27T10:09:20.009Z,1001.88
2018-04-27T10:10:19.995Z,1001.87
2018-04-27T10:11:19.981Z,1001.84
2018-04-27T10:12:20.024Z,1001.85
2018-04-27T10:13:19.964Z,1001.86
2018-04-27T10:14:20.124Z,1001.87
2018-04-27T10:15:19.926Z,1001.84
2018-04-27T10:16:19.910Z,1001.81
2018-04-27T10:17:19.898Z,1001.78
2018-04-27T10:18:19.884Z,1001.82
2018-04-27T10:19:19.869Z,1001.81
2018-04-27T10:20:19.856Z,1001.77
2018-04-27T10:21:19.843Z,1001.77
2018-04-27T10:22:19.928Z,1001.81
2018-04-27T10:23:19.815Z,1001.75
2018-04-27T10:24:19.800Z,1001.7
2018-04-27T10:25:19.787Z,1001.65
2018-04-27T10:26:19.773Z,1001.6
2018-04-27T10:27:19.759Z,1001.57
2018-04-27T10:28:19.746Z,1001.56
2018-04-27T10:29:19.735Z,1001.59
2018-04-27T10:30:19.719Z,1001.54
2018-04-27T10:31:19.709Z,1001.51
2018-04-27T10:32:19.693Z,1001.52
2018-04-27T10:33:19.678Z,1001.5
2018-04-27T10:34:19.665Z,1001.44
2018-04-27T10:35:19.652Z,1001.43
2018-04-27T10:36:19.638Z,1001.41
2018-04-27T10:37:19.630Z,1001.41
2018-04-27T10:38:19.612Z,1001.35
2018-04-27T10:39:19.606Z,1001.32
2018-04-27T10:40:19.587Z,1001.3
2018-04-27T10:41:19.573Z,1001.34
2018-04-27T10:42:19.661Z,1001.37
2018-04-27T10:43:19.548Z,1001.37
2018-04-27T10:44:19.534Z,1001.35
2018-04-27T10:45:19.522Z,1001.3
2018-04-27T10:46:19.514Z,1001.32
2018-04-27T10:47:19.499Z,1001.31
2018-04-27T10:48:19.485Z,1001.26
2018-04-27T10:49:19.473Z,1001.23
2018-04-27T10:50:19.536Z,1001.3
2018-04-27T10:51:19.449Z,1001.3
2018-04-27T10:52:19.434Z,1001.28
2018-04-27T10:53:19.423Z,1001.27
2018-04-27T10:54:19.411Z,1001.24
2018-04-27T10:55:19.397Z,1001.2
2018-04-27T10:56:19.385Z,1001.17
2018-04-27T10:57:19.373Z,1001.12
2018-04-27T10:58:19.359Z,1001.1
2018-04-27T10:59:19.345Z,1001
2018-04-27T11:00:19.334Z,1001.12
2018-04-27T11:01:19.356Z,1001.15
2018-04-27T11:02:19.308Z,1001.13
2018-04-27T11:03:19.317Z,1001.12
2018-04-27T11:04:19.284Z,1001.11
2018-04-27T11:05:19.272Z,1001.1
2018-04-27T11:06:19.259Z,1001.04
2018-04-27T11:07:19.251Z,1001.05
2018-04-27T11:08:19.234Z,1001.05
2018-04-27T11:09:19.222Z,1001.01
2018-04-27T11:10:19.208Z,1000.96
2018-04-27T11:11:19.197Z,1000.91
2018-04-27T11:12:19.185Z,1000.94
2018-04-27T11:13:19.172Z,1000.97
2018-04-27T11:14:19.159Z,1001
2018-04-27T11:15:19.149Z,1000.93
2018-04-27T11:16:19.137Z,1000.9
2018-04-27T11:17:19.124Z,1000.89
2018-04-27T11:18:19.112Z,1000.88
2018-04-27T11:19:19.099Z,1000.81
2018-04-27T11:20:19.297Z,1000.87
2018-04-27T11:21:19.075Z,1000.88
2018-04-27T11:22:19.064Z,1000.84
2018-04-27T11:23:19.053Z,1000.83
2018-04-27T11:24:19.040Z,1000.85
2018-04-27T11:25:19.027Z,1000.69
2018-04-27T11:26:19.017Z,1000.72
2018-04-27T11:27:19.004Z,1000.69
2018-04-27T11:28:18.993Z,1000.7
2018-04-27T11:29:18.981Z,1000.65
2018-04-27T11:30:18.975Z,1000.7
2018-04-27T11:31:18.958Z,1000.7
2018-04-27T11:32:18.943Z,1000.76
2018-04-27T11:33:18.933Z,1000.73
2018-04-27T11:34:18.922Z,1000.74
2018-04-27T11:35:18.922Z,1000.71
2018-04-27T11:36:18.897Z,1000.67
2018-04-27T11:37:18.884Z,1000.69
2018-04-27T11:38:18.873Z,1000.61
2018-04-27T11:39:18.860Z,1000.61
2018-04-27T11:40:18.847Z,1000.57
2018-04-27T11:41:18.847Z,1000.5
2018-04-27T11:42:18.824Z,1000.54
2018-04-27T11:43:18.812Z,1000.52
2018-04-27T11:44:18.800Z,1000.53
2018-04-27T11:45:18.790Z,1000.49
2018-04-27T11:46:18.776Z,1000.47
2018-04-27T11:47:18.761Z,1000.48
2018-04-27T11:48:18.749Z,1000.42
2018-04-27T11:49:18.738Z,1000.4
2018-04-27T11:50:18.724Z,1000.36
2018-04-27T11:51:18.718Z,1000.36
2018-04-27T11:52:18.701Z,1000.34
2018-04-27T11:53:18.725Z,1000.26
2018-04-27T11:54:18.675Z,1000.28
2018-04-27T11:55:18.664Z,1000.32
2018-04-27T11:56:18.651Z,1000.31
2018-04-27T11:57:18.639Z,1000.26
2018-04-27T11:58:18.627Z,1000.27
2018-04-27T11:59:18.615Z,1000.3
2018-04-27T12:00:18.602Z,1000.21
2018-04-27T12:01:18.589Z,1000.21
2018-04-27T12:02:18.577Z,1000.23
2018-04-27T12:03:18.574Z,1000.19
2018-04-27T12:04:18.552Z,1000.21
2018-04-27T12:05:18.564Z,1000.25
2018-04-27T12:06:18.526Z,1000.16
2018-04-27T12:07:18.516Z,1000.16
2018-04-27T12:08:18.501Z,1000.15